Time;durP1;ratioP1;P1;durP2;ratioP2;P2;SDS_P1;SDS_P2;PMS_P1;PMS_P2;Temp;Humidity;BMP_temperature;BMP_pressure;BME280_temperature;BME280_humidity;BME280_pressure;Samples;Min_cycle;Max_cycle;Signal;HPM_P1;HPM_P2
2021/04/05 00:02:21;;;;;;;18.88;15.65;;;;;;;9.50;100.00;101076.78;5017950;28;20038;-74
2021/04/05 00:05:13;;;;;;;20.15;15.95;;;;;;;9.03;100.00;101079.72;5032809;28;20036;-74
2021/04/05 00:07:59;;;;;;;21.98;17.23;;;;;;;9.19;100.00;101090.94;5033708;28;20373;-73
2021/04/05 00:10:49;;;;;;;20.63;16.73;;;;;;;9.16;100.00;101080.50;5018575;28;20037;-74
2021/04/05 00:13:43;;;;;;;19.85;16.55;;;;;;;9.00;100.00;101086.69;5019032;28;20033;-75
2021/04/05 00:16:29;;;;;;;23.02;16.92;;;;;;;8.73;100.00;101082.47;5033579;28;20025;-74
2021/04/05 00:19:15;;;;;;;24.77;19.55;;;;;;;8.72;100.00;101080.72;5022002;28;20087;-74
2021/04/05 00:22:00;;;;;;;23.60;18.77;;;;;;;8.59;100.00;101091.22;5022881;28;20113;-75
2021/04/05 00:24:46;;;;;;;23.02;18.30;;;;;;;8.72;100.00;101091.19;5021903;28;20025;-74
2021/04/05 00:27:32;;;;;;;22.52;18.30;;;;;;;8.71;100.00;101088.56;5037538;28;20091;-74
2021/04/05 00:30:26;;;;;;;26.38;20.67;;;;;;;8.83;100.00;101092.00;5037708;28;20029;-74
2021/04/05 00:33:12;;;;;;;23.92;18.85;;;;;;;8.58;100.00;101084.28;5037509;28;20110;-73
2021/04/05 00:35:58;;;;;;;18.90;15.20;;;;;;;8.40;100.00;101074.75;5036411;28;20060;-74
2021/04/05 00:38:43;;;;;;;18.23;14.68;;;;;;;8.40;100.00;101073.91;5036274;28;20036;-74
2021/04/05 00:41:29;;;;;;;18.23;14.52;;;;;;;8.62;100.00;101083.41;5036147;28;20021;-74
2021/04/05 00:44:15;;;;;;;17.33;13.48;;;;;;;8.48;100.00;101074.75;5036490;28;20033;-75
2021/04/05 00:47:02;;;;;;;17.25;14.25;;;;;;;8.71;100.00;101073.78;5022172;28;20022;-74
2021/04/05 00:49:48;;;;;;;20.23;14.60;;;;;;;8.96;100.00;101090.22;5036398;28;20065;-74
2021/04/05 00:52:35;;;;;;;17.67;14.23;;;;;;;8.75;100.00;101082.47;5036048;28;20025;-74
2021/04/05 00:55:21;;;;;;;17.38;14.05;;;;;;;8.76;100.00;101085.06;5036375;28;20077;-74
2021/04/05 00:58:07;;;;;;;17.02;13.15;;;;;;;8.83;100.00;101088.53;5036610;28;20322;-74
2021/04/05 01:00:58;;;;;;;17.30;14.18;;;;;;;8.48;100.00;101080.81;5035715;28;20095;-74
2021/04/05 01:03:44;;;;;;;15.73;11.93;;;;;;;8.58;100.00;101093.00;5021085;28;20041;-75
2021/04/05 01:06:32;;;;;;;14.43;11.85;;;;;;;9.00;100.00;101087.56;5022466;28;20508;-74
2021/04/05 01:09:18;;;;;;;13.88;11.15;;;;;;;8.78;100.00;101087.69;5036100;28;20029;-75
2021/04/05 01:12:04;;;;;;;15.40;12.60;;;;;;;8.66;100.00;101087.72;5035919;28;20021;-74
2021/04/05 01:14:50;;;;;;;16.63;13.40;;;;;;;8.60;100.00;101087.78;5035553;28;20052;-73
2021/04/05 01:17:37;;;;;;;19.83;14.35;;;;;;;8.30;100.00;101087.84;5035963;28;20033;-75
2021/04/05 01:20:24;;;;;;;17.65;14.48;;;;;;;8.40;100.00;101090.41;5035673;28;20033;-75
2021/04/05 01:23:10;;;;;;;20.42;15.55;;;;;;;8.48;100.00;101093.88;5035980;28;20025;-74
2021/04/05 01:25:56;;;;;;;16.15;13.10;;;;;;;8.38;100.00;101096.53;5035379;28;20067;-73
2021/04/05 01:28:42;;;;;;;16.75;13.68;;;;;;;8.58;100.00;101098.22;5035418;28;20044;-74
2021/04/05 01:31:28;;;;;;;15.70;12.40;;;;;;;8.40;100.00;101095.66;5020800;28;20171;-74
2021/04/05 01:34:13;;;;;;;16.70;13.25;;;;;;;8.62;100.00;101101.69;5021802;28;20029;-74
2021/04/05 01:37:00;;;;;;;17.98;13.85;;;;;;;8.38;100.00;101096.53;5021717;28;20018;-73
2021/04/05 01:39:45;;;;;;;14.88;12.13;;;;;;;8.12;100.00;101093.94;5035892;28;20021;-74
2021/04/05 01:42:31;;;;;;;16.40;12.80;;;;;;;8.15;100.00;101088.72;5036357;28;20025;-73
2021/04/05 01:45:18;;;;;;;16.55;13.02;;;;;;;8.50;100.00;101092.16;5035457;28;20032;-74
2021/04/05 01:48:05;;;;;;;15.05;12.40;;;;;;;8.13;100.00;101086.97;5020260;28;20026;-73
2021/04/05 01:50:56;;;;;;;17.48;13.90;;;;;;;8.19;100.00;101090.44;5035456;28;20030;-75
2021/04/05 01:53:44;;;;;;;14.50;11.80;;;;;;;7.99;100.00;101091.34;5035302;28;20029;-74
2021/04/05 01:56:29;;;;;;;15.27;12.45;;;;;;;7.58;100.00;101101.78;5034758;28;20032;-74
2021/04/05 01:59:16;;;;;;;17.20;13.13;;;;;;;7.85;100.00;101093.97;5035766;28;20025;-74
2021/04/05 02:02:02;;;;;;;15.82;12.88;;;;;;;8.06;100.00;101087.84;5034732;28;20459;-74
2021/04/05 02:04:48;;;;;;;15.38;12.13;;;;;;;7.94;100.00;101091.38;5034729;28;20026;-74
2021/04/05 02:07:36;;;;;;;14.88;11.32;;;;;;;8.19;100.00;101094.78;5034568;28;20025;-74
2021/04/05 02:10:25;;;;;;;15.10;12.10;;;;;;;8.47;100.00;101097.38;5035195;28;20116;-74
2021/04/05 02:13:11;;;;;;;17.17;13.50;;;;;;;7.91;100.00;101093.09;5034208;28;20038;-73
2021/04/05 02:15:57;;;;;;;19.92;13.55;;;;;;;8.14;100.00;101096.53;5035081;28;20032;-74
2021/04/05 02:18:44;;;;;;;15.57;12.82;;;;;;;8.01;100.00;101094.81;5034865;28;20037;-74
2021/04/05 02:21:30;;;;;;;18.13;13.63;;;;;;;8.17;100.00;101093.94;5020987;28;20430;-74
2021/04/05 02:24:16;;;;;;;17.52;13.95;;;;;;;8.17;100.00;101096.53;5035547;28;20029;-75
2021/04/05 02:27:03;;;;;;;18.20;13.75;;;;;;;8.03;100.00;101096.56;5034132;28;20029;-74
2021/04/05 02:29:52;;;;;;;17.13;13.20;;;;;;;8.13;100.00;101090.47;5034575;28;20033;-75
2021/04/05 02:32:39;;;;;;;17.65;13.88;;;;;;;8.20;100.00;101091.34;5019354;28;20095;-75
2021/04/05 02:35:28;;;;;;;17.48;13.20;;;;;;;8.07;100.00;101089.59;5020716;28;20104;-74
2021/04/05 02:38:13;;;;;;;16.80;13.50;;;;;;;7.66;100.00;101091.34;5034129;28;20049;-74
2021/04/05 02:40:59;;;;;;;16.08;12.68;;;;;;;8.02;100.00;101097.44;5034320;28;20056;-75
2021/04/05 02:43:46;;;;;;;17.90;13.45;;;;;;;8.27;100.00;101096.56;5034176;28;20517;-74
2021/04/05 02:46:35;;;;;;;18.40;13.95;;;;;;;8.60;100.00;101088.63;5033694;28;20029;-74
2021/04/05 02:49:22;;;;;;;16.75;13.65;;;;;;;8.75;100.00;101093.78;5020423;28;20033;-73
2021/04/05 02:52:08;;;;;;;17.90;13.90;;;;;;;8.70;100.00;101094.69;5034315;28;20401;-73
2021/04/05 02:54:54;;;;;;;19.05;15.25;;;;;;;8.43;100.00;101090.41;5033471;28;20021;-74
2021/04/05 02:57:43;;;;;;;19.00;14.20;;;;;;;8.21;100.00;101093.09;5034450;28;20339;-74
2021/04/05 03:00:29;;;;;;;18.70;14.38;;;;;;;8.03;100.00;101098.28;5019369;28;20090;-74
2021/04/05 03:03:17;;;;;;;14.90;12.00;;;;;;;8.08;100.00;101096.56;5000564;28;20118;-74
2021/04/05 03:06:04;;;;;;;13.90;11.68;;;;;;;8.27;100.00;101103.50;5014307;28;20370;-74
2021/04/05 03:08:50;;;;;;;14.70;12.15;;;;;;;8.44;100.00;101104.34;5013571;28;20084;-73
2021/04/05 03:11:38;;;;;;;13.50;11.30;;;;;;;8.09;100.00;101108.72;5014725;28;20476;-74
2021/04/05 03:14:25;;;;;;;12.30;10.05;;;;;;;8.18;100.00;101111.31;4999730;28;20046;-74
2021/04/05 03:17:12;;;;;;;12.60;9.68;;;;;;;8.26;100.00;101107.00;5000231;28;20025;-74
2021/04/05 03:19:59;;;;;;;13.57;10.57;;;;;;;8.14;100.00;101106.97;5013880;28;20344;-75
2021/04/05 03:22:46;;;;;;;11.73;9.95;;;;;;;8.51;100.00;101116.50;4999838;28;20037;-74
2021/04/05 03:25:31;;;;;;;14.85;11.10;;;;;;;8.49;100.00;101116.50;5014531;28;20030;-74
2021/04/05 03:28:17;;;;;;;14.25;11.25;;;;;;;8.56;100.00;101112.16;4999967;28;20473;-75
2021/04/05 03:31:15;;;;;;;15.30;12.32;;;;;;;8.71;100.00;101112.97;5014455;28;20044;-74
2021/04/05 03:34:10;;;;;;;14.35;11.60;;;;;;;8.62;100.00;101119.97;4999640;28;20037;-75
2021/04/05 03:37:01;;;;;;;13.77;10.52;;;;;;;8.66;100.00;101116.47;4998860;28;20108;-75
2021/04/05 03:39:50;;;;;;;12.13;10.20;;;;;;;8.32;100.00;101118.28;5012623;28;20018;-73
2021/04/05 03:42:42;;;;;;;12.13;9.80;;;;;;;8.30;100.00;101119.16;5013189;28;20550;-74
2021/04/05 03:45:37;;;;;;;13.52;10.35;;;;;;;8.47;100.00;101122.59;5013030;28;20033;-74
2021/04/05 03:48:43;;;;;;;12.23;9.63;;;;;;;7.88;100.00;101124.41;5013932;28;20022;-74
2021/04/05 03:51:34;;;;;;;12.32;10.02;;;;;;;8.26;100.00;101126.16;5014703;28;20022;-75
2021/04/05 03:54:23;;;;;;;13.73;10.90;;;;;;;8.56;100.00;101123.44;5018026;28;20026;-74
2021/04/05 03:57:09;;;;;;;14.75;11.25;;;;;;;8.70;100.00;101126.91;5017981;28;20041;-74
2021/04/05 04:00:00;;;;;;;12.98;9.93;;;;;;;8.65;100.00;101131.25;5016791;28;20025;-74
2021/04/05 04:02:51;;;;;;;13.20;10.70;;;;;;;8.43;100.00;101126.09;5034187;28;20505;-73
2021/04/05 04:05:42;;;;;;;14.63;10.40;;;;;;;8.45;100.00;101121.75;5036543;28;20104;-74
2021/04/05 04:08:42;;;;;;;12.75;10.20;;;;;;;8.19;100.00;101132.19;5037155;28;20091;-74
2021/04/05 04:11:30;;;;;;;12.40;10.43;;;;;;;7.74;100.00;101136.56;5036711;28;20033;-74
2021/04/05 04:14:17;;;;;;;14.18;11.48;;;;;;;8.34;100.00;101128.72;5022593;28;20029;-74
2021/04/05 04:17:06;;;;;;;13.88;10.70;;;;;;;8.39;100.00;101122.63;5036018;28;20029;-74
2021/04/05 04:19:55;;;;;;;13.88;10.50;;;;;;;8.69;100.00;101129.53;5036944;28;20434;-73
2021/04/05 04:22:42;;;;;;;13.82;10.93;;;;;;;8.23;100.00;101138.31;5036256;28;20068;-73
2021/04/05 04:25:29;;;;;;;13.27;10.77;;;;;;;8.17;100.00;101128.75;5036387;28;20115;-74
2021/04/05 04:28:15;;;;;;;12.70;10.40;;;;;;;8.48;100.00;101129.59;5022344;28;20044;-74
2021/04/05 04:31:03;;;;;;;14.55;11.88;;;;;;;8.56;100.00;101138.28;5036877;28;20021;-74
2021/04/05 04:33:49;;;;;;;15.38;12.00;;;;;;;8.76;100.00;101139.09;5036244;28;20030;-74
2021/04/05 04:36:36;;;;;;;16.02;11.63;;;;;;;8.44;100.00;101143.53;5022085;28;20040;-73
2021/04/05 04:39:21;;;;;;;13.60;10.82;;;;;;;8.43;100.00;101136.53;5022802;28;20021;-74
2021/04/05 04:42:08;;;;;;;14.07;11.43;;;;;;;8.67;100.00;101142.56;5021659;28;20025;-75
2021/04/05 04:44:54;;;;;;;15.77;12.45;;;;;;;8.49;100.00;101146.97;5036904;28;20033;-74
2021/04/05 04:47:40;;;;;;;14.93;12.00;;;;;;;8.76;100.00;101147.75;5036477;28;20029;-74
2021/04/05 04:50:28;;;;;;;19.00;12.55;;;;;;;8.45;100.00;101153.09;5036278;28;20120;-74
2021/04/05 04:53:14;;;;;;;16.67;12.68;;;;;;;8.19;100.00;101160.03;5036325;28;20116;-74
2021/04/05 04:55:59;;;;;;;16.30;12.45;;;;;;;8.71;100.00;101151.25;5036823;28;20030;-75
2021/04/05 04:58:46;;;;;;;16.10;12.70;;;;;;;8.79;100.00;101154.72;5022447;28;20083;-74
2021/04/05 05:01:36;;;;;;;16.75;11.90;;;;;;;8.44;100.00;101146.97;5035936;28;20045;-74
2021/04/05 05:04:27;;;;;;;17.65;11.70;;;;;;;8.98;100.00;101154.66;5036422;28;20026;-74
2021/04/05 05:07:15;;;;;;;13.68;11.50;;;;;;;8.78;100.00;101155.59;5035369;28;20164;-74
2021/04/05 05:10:03;;;;;;;13.68;11.57;;;;;;;9.08;100.00;101156.34;5036170;28;20450;-75
2021/04/05 05:12:49;;;;;;;13.68;11.10;;;;;;;9.11;100.00;101161.56;5035484;28;20033;-75
2021/04/05 05:15:36;;;;;;;14.63;10.93;;;;;;;9.02;100.00;101155.50;5036698;28;20119;-74
2021/04/05 05:18:24;;;;;;;15.18;11.70;;;;;;;9.23;100.00;101158.91;5035431;28;20035;-74
2021/04/05 05:21:24;;;;;;;13.32;11.00;;;;;;;8.94;100.00;101157.28;5035548;28;20029;-74
2021/04/05 05:24:14;;;;;;;14.90;10.73;;;;;;;9.13;100.00;101156.34;5021466;28;20025;-74
2021/04/05 05:27:02;;;;;;;15.02;11.60;;;;;;;8.96;100.00;101155.56;5022143;28;20032;-74
2021/04/05 05:29:48;;;;;;;12.57;10.55;;;;;;;9.02;100.00;101160.75;5021220;28;20026;-75
2021/04/05 05:32:35;;;;;;;13.38;11.00;;;;;;;9.03;100.00;101157.25;5021160;28;20021;-73
2021/04/05 05:35:23;;;;;;;12.77;10.57;;;;;;;9.02;100.00;101166.84;5035210;28;20037;-74
2021/04/05 05:38:08;;;;;;;14.68;11.25;;;;;;;8.79;100.00;101158.22;5035531;28;20359;-74
2021/04/05 05:41:05;;;;;;;12.00;9.48;;;;;;;9.05;100.00;101166.81;5035423;28;20022;-74
2021/04/05 05:44:08;;;;;;;17.85;10.30;;;;;;;8.92;100.00;101166.88;5021054;28;20466;-74
2021/04/05 05:47:27;;;;;;;11.73;10.18;;;;;;;8.95;100.00;101172.09;5034997;28;20065;-75
2021/04/05 05:50:25;;;;;;;12.18;9.90;;;;;;;8.99;100.00;101159.00;5034648;28;20464;-74
2021/04/05 05:53:11;;;;;;;11.95;10.00;;;;;;;9.11;100.00;101160.69;5035531;28;20033;-74
2021/04/05 05:55:59;;;;;;;12.10;9.75;;;;;;;9.54;100.00;101156.97;5021342;28;20032;-76
2021/04/05 05:59:08;;;;;;;10.52;9.25;;;;;;;9.06;100.00;101163.34;5020779;28;20420;-74
2021/04/05 06:02:02;;;;;;;12.38;9.63;;;;;;;9.48;100.00;101162.22;5019180;28;20045;-74
2021/04/05 06:05:05;;;;;;;12.60;10.02;;;;;;;9.51;100.00;101162.22;5019965;28;20025;-75
2021/04/05 06:08:31;;;;;;;11.48;9.32;;;;;;;9.30;100.00;101171.06;5035066;28;20037;-74
2021/04/05 06:11:32;;;;;;;12.15;9.45;;;;;;;9.63;100.00;101163.03;5023127;28;20030;-74
2021/04/05 06:14:49;;;;;;;15.57;10.02;;;;;;;9.39;100.00;101175.38;5033898;28;20104;-74
2021/04/05 06:17:48;;;;;;;14.32;10.95;;;;;;;9.53;100.00;101177.03;5020726;28;20034;-74
2021/04/05 06:20:48;;;;;;;15.65;12.07;;;;;;;9.69;100.00;101183.91;5019775;28;20017;-74
2021/04/05 06:23:49;;;;;;;16.00;12.95;;;;;;;9.72;100.00;101183.00;5020230;28;20025;-73
2021/04/05 06:26:50;;;;;;;12.52;10.02;;;;;;;9.58;100.00;101183.13;5020889;28;20026;-74
2021/04/05 06:30:08;;;;;;;11.15;9.20;;;;;;;9.87;100.00;101182.91;5019534;28;20100;-74
2021/04/05 06:32:58;;;;;;;12.20;8.50;;;;;;;10.19;100.00;101178.31;5034525;28;20484;-74
2021/04/05 06:36:17;;;;;;;10.82;8.38;;;;;;;10.37;100.00;101179.91;5034320;28;20469;-75
2021/04/05 06:39:09;;;;;;;10.35;8.05;;;;;;;10.31;100.00;101180.84;5034002;28;20033;-74
2021/04/05 06:42:32;;;;;;;12.95;9.48;;;;;;;10.30;100.00;101192.19;5033689;28;20033;-75
2021/04/05 06:45:27;;;;;;;10.00;8.30;;;;;;;10.42;100.00;101196.44;5020939;28;20022;-74
2021/04/05 06:48:38;;;;;;;10.77;8.00;;;;;;;10.84;100.00;101198.66;5033668;28;20035;-74
2021/04/05 06:51:32;;;;;;;13.65;10.43;;;;;;;10.68;100.00;101189.22;5033981;28;20029;-74
2021/04/05 06:54:21;;;;;;;10.38;8.23;;;;;;;10.25;100.00;101193.13;5020301;28;20025;-77
2021/04/05 06:57:10;;;;;;;15.50;11.48;;;;;;;9.95;100.00;101196.81;5034334;28;20055;-75
2021/04/05 07:00:09;;;;;;;12.00;8.75;;;;;;;9.90;100.00;101196.81;5033963;28;20030;-74
2021/04/05 07:02:58;;;;;;;11.32;9.23;;;;;;;10.31;100.00;101186.06;5019483;28;20054;-76
2021/04/05 07:05:52;;;;;;;10.77;7.95;;;;;;;10.09;100.00;101192.38;5020075;28;20034;-76
2021/04/05 07:09:11;;;;;;;9.93;7.90;;;;;;;10.23;100.00;101192.25;5033958;28;20029;-74
2021/04/05 07:12:14;;;;;;;10.65;8.10;;;;;;;10.71;100.00;101187.41;5033832;28;20025;-76
2021/04/05 07:15:05;;;;;;;10.73;8.35;;;;;;;10.91;100.00;101198.56;5019463;28;20095;-76
2021/04/05 07:18:30;;;;;;;10.73;8.23;;;;;;;10.71;100.00;101195.28;5020495;28;20036;-76
2021/04/05 07:21:48;;;;;;;9.20;7.45;;;;;;;11.09;100.00;101202.72;5032602;28;20032;-77
2021/04/05 07:24:50;;;;;;;9.77;8.75;;;;;;;11.21;100.00;101202.59;5019333;28;20029;-76
2021/04/05 07:28:01;;;;;;;10.05;8.43;;;;;;;10.75;100.00;101199.59;5034012;28;20184;-76
2021/04/05 07:31:09;;;;;;;10.65;8.88;;;;;;;11.43;100.00;101204.91;5034243;28;20053;-76
2021/04/05 07:34:10;;;;;;;12.60;9.50;;;;;;;10.95;100.00;101205.50;5034128;28;20025;-74
2021/04/05 07:37:24;;;;;;;10.05;7.82;;;;;;;10.57;100.00;101199.78;5032521;28;20313;-75
2021/04/05 07:40:41;;;;;;;10.10;8.00;;;;;;;10.92;100.00;101207.28;5033091;28;20355;-75
2021/04/05 07:44:04;;;;;;;10.68;7.82;;;;;;;10.72;100.00;101193.53;5032576;28;20021;-74
2021/04/05 07:47:10;;;;;;;10.40;8.48;;;;;;;10.94;100.00;101197.66;5018565;28;20079;-74
2021/04/05 07:50:03;;;;;;;11.02;8.32;;;;;;;11.51;100.00;101199.53;5033023;28;20084;-75
2021/04/05 07:52:57;;;;;;;10.48;9.02;;;;;;;11.71;100.00;101203.69;5033652;28;20359;-75
2021/04/05 07:55:46;;;;;;;10.43;8.20;;;;;;;11.22;100.00;101204.31;5032593;28;20319;-75
2021/04/05 07:58:51;;;;;;;9.20;8.07;;;;;;;11.80;100.00;101197.41;5032877;28;20461;-74
2021/04/05 08:01:50;;;;;;;9.65;7.45;;;;;;;11.92;100.00;101203.34;5032572;28;20045;-75
2021/04/05 08:04:57;;;;;;;11.23;8.10;;;;;;;11.70;100.00;101194.03;5033623;28;20057;-73
2021/04/05 08:07:52;;;;;;;9.25;7.43;;;;;;;12.14;100.00;101196.84;5032176;28;20025;-74
2021/04/05 08:10:56;;;;;;;9.20;7.78;;;;;;;11.58;100.00;101201.22;5033628;28;20469;-75
2021/04/05 08:14:37;;;;;;;12.25;7.60;;;;;;;11.44;100.00;101209.25;5032094;28;20412;-75
2021/04/05 08:17:31;;;;;;;8.32;7.15;;;;;;;10.71;100.00;101204.88;5019740;28;20036;-75
2021/04/05 08:20:41;;;;;;;8.93;7.65;;;;;;;10.92;100.00;101213.41;5033269;28;20033;-75
2021/04/05 08:23:36;;;;;;;11.38;7.82;;;;;;;11.39;100.00;101216.34;5018274;28;20033;-74
2021/04/05 08:26:37;;;;;;;8.55;7.30;;;;;;;10.78;100.00;101207.44;5032970;28;20026;-74
2021/04/05 08:29:32;;;;;;;9.15;7.85;;;;;;;10.81;100.00;101210.00;5033406;28;20037;-74
2021/04/05 08:32:18;;;;;;;14.25;10.05;;;;;;;11.05;100.00;101208.91;5033416;28;20123;-74
2021/04/05 08:35:34;;;;;;;23.27;14.60;;;;;;;11.70;100.00;101211.56;5032794;28;20079;-74
2021/04/05 08:38:29;;;;;;;10.68;8.38;;;;;;;11.61;100.00;101217.81;5033767;28;20044;-75
2021/04/05 08:41:35;;;;;;;10.50;8.30;;;;;;;11.63;100.00;101220.41;5036698;28;20116;-75
2021/04/05 08:44:36;;;;;;;9.95;8.05;;;;;;;11.79;100.00;101217.56;5036009;28;20040;-74
2021/04/05 08:47:27;;;;;;;9.90;7.50;;;;;;;12.17;100.00;101216.97;5035825;28;20033;-75
2021/04/05 08:50:15;;;;;;;9.00;7.20;;;;;;;11.25;100.00;101217.41;5036283;28;20025;-75
2021/04/05 08:53:02;;;;;;;8.18;7.13;;;;;;;12.01;100.00;101221.59;5036626;28;20462;-73
2021/04/05 08:55:50;;;;;;;13.98;8.30;;;;;;;11.99;100.00;101214.63;5036236;28;20040;-74
2021/04/05 08:58:45;;;;;;;10.57;7.95;;;;;;;11.07;100.00;101220.22;5037146;28;20041;-74
2021/04/05 09:01:43;;;;;;;9.20;7.38;;;;;;;11.76;100.00;101225.47;5021413;28;20077;-74
2021/04/05 09:04:31;;;;;;;9.30;7.75;;;;;;;11.70;100.00;101227.31;5036915;28;20025;-75
2021/04/05 09:07:47;;;;;;;10.93;6.85;;;;;;;12.56;100.00;101222.44;5035424;28;20087;-73
2021/04/05 09:10:40;;;;;;;9.75;7.05;;;;;;;11.65;100.00;101219.50;5036159;28;20029;-74
2021/04/05 09:13:35;;;;;;;8.80;7.25;;;;;;;12.21;100.00;101210.75;5021804;28;20091;-75
2021/04/05 09:16:24;;;;;;;9.18;7.28;;;;;;;12.86;100.00;101207.88;5037855;28;20025;-75
2021/04/05 09:19:47;;;;;;;8.38;6.70;;;;;;;13.28;100.00;101210.53;5022441;28;20112;-75
2021/04/05 09:22:48;;;;;;;8.45;6.88;;;;;;;12.37;100.00;101205.22;5035032;28;20032;-74
2021/04/05 09:25:45;;;;;;;11.02;7.13;;;;;;;13.23;100.00;101204.47;5035775;28;20025;-75
2021/04/05 09:28:45;;;;;;;7.47;6.40;;;;;;;12.68;100.00;101203.81;5036493;28;20035;-75
2021/04/05 09:31:43;;;;;;;7.00;5.95;;;;;;;13.00;100.00;101201.47;5036912;28;20017;-72
2021/04/05 09:34:47;;;;;;;6.55;5.43;;;;;;;12.74;100.00;101192.31;5035835;28;20036;-74
2021/04/05 09:37:49;;;;;;;6.63;5.05;;;;;;;13.01;100.00;101199.69;5034876;28;20307;-76
2021/04/05 09:40:56;;;;;;;7.93;5.30;;;;;;;12.57;100.00;101197.88;5035549;28;20033;-74
2021/04/05 09:44:00;;;;;;;9.68;4.43;;;;;;;12.59;100.00;101190.84;5034193;28;20401;-74
2021/04/05 09:47:31;;;;;;;5.53;4.88;;;;;;;12.90;100.00;101197.22;5035444;28;20037;-75
2021/04/05 09:50:31;;;;;;;4.90;4.20;;;;;;;12.56;100.00;101195.25;5033942;28;20037;-74
2021/04/05 09:53:17;;;;;;;5.20;4.50;;;;;;;12.31;100.00;101202.72;5035303;28;20029;-74
2021/04/05 09:56:07;;;;;;;6.25;4.05;;;;;;;11.75;100.00;101205.38;5035421;28;20033;-74
2021/04/05 09:59:04;;;;;;;3.72;3.28;;;;;;;12.25;100.00;101192.31;5034927;28;20120;-74
2021/04/05 10:01:52;;;;;;;3.50;2.72;;;;;;;12.06;100.00;101188.22;5034869;28;20049;-76
2021/04/05 10:04:40;;;;;;;3.10;2.70;;;;;;;11.70;100.00;101180.06;5035389;28;20033;-74
2021/04/05 10:07:28;;;;;;;2.63;2.42;;;;;;;11.92;100.00;101166.59;5035421;28;20025;-74
2021/04/05 10:10:15;;;;;;;5.03;2.38;;;;;;;12.19;100.00;101171.41;5035825;28;20117;-74
2021/04/05 10:13:06;;;;;;;2.10;1.90;;;;;;;12.20;100.00;101173.13;5035361;28;20548;-74
2021/04/05 10:15:55;;;;;;;2.30;2.10;;;;;;;12.27;100.00;101177.41;5035634;28;20140;-75
2021/04/05 10:18:48;;;;;;;3.17;2.58;;;;;;;12.13;100.00;101176.75;5020653;28;20029;-75
2021/04/05 10:21:36;;;;;;;3.20;2.35;;;;;;;11.61;100.00;101178.44;5034528;28;20030;-75
2021/04/05 10:24:23;;;;;;;5.05;2.10;;;;;;;11.70;100.00;101185.31;5035812;28;20405;-74
2021/04/05 10:27:11;;;;;;;2.35;1.80;;;;;;;12.49;100.00;101180.50;5020050;28;20450;-75
2021/04/05 10:29:58;;;;;;;2.88;1.90;;;;;;;12.21;100.00;101180.09;5035294;28;20061;-74
2021/04/05 10:32:44;;;;;;;2.17;1.75;;;;;;;12.25;100.00;101175.66;5034439;28;20408;-74
2021/04/05 10:35:33;;;;;;;7.40;2.03;;;;;;;11.81;100.00;101183.41;5034653;28;20040;-74
2021/04/05 10:38:19;;;;;;;1.90;1.80;;;;;;;12.05;100.00;101170.75;5034065;28;20037;-76
2021/04/05 10:41:07;;;;;;;2.33;1.90;;;;;;;12.43;100.00;101172.72;5020633;28;20033;-74
2021/04/05 10:43:59;;;;;;;2.25;1.75;;;;;;;12.75;100.00;101173.88;5034194;28;20135;-76
2021/04/05 10:46:48;;;;;;;2.40;1.70;;;;;;;13.11;100.00;101167.91;5034393;28;20025;-75
2021/04/05 10:49:35;;;;;;;1.98;1.40;;;;;;;13.10;100.00;101170.59;5020409;28;20480;-75
2021/04/05 10:53:07;;;;;;;1.95;1.67;;;;;;;13.79;100.00;101174.31;5019900;28;20041;-74
2021/04/05 10:56:06;;;;;;;2.50;1.70;;;;;;;13.62;100.00;101174.69;5018521;28;20092;-74
2021/04/05 10:59:20;;;;;;;1.88;1.67;;;;;;;13.92;100.00;101154.69;5020594;28;20028;-75
2021/04/05 11:02:19;;;;;;;3.28;1.60;;;;;;;12.89;100.00;101160.44;5032248;28;20400;-73
2021/04/05 11:05:16;;;;;;;2.15;1.60;;;;;;;12.21;100.00;101152.97;5033742;28;20029;-73
2021/04/05 11:08:05;;;;;;;2.15;1.70;;;;;;;12.13;100.00;101149.63;5019495;28;20025;-72
2021/04/05 11:11:01;;;;;;;6.85;2.17;;;;;;;12.57;100.00;101141.78;5034467;28;20041;-74
2021/04/05 11:13:51;;;;;;;3.20;2.35;;;;;;;13.74;100.00;101132.28;5033233;28;20473;-75
2021/04/05 11:16:42;;;;;;;2.60;2.40;;;;;;;13.41;100.00;101145.34;5035076;28;20404;-74
2021/04/05 11:19:35;;;;;;;3.22;2.60;;;;;;;12.12;100.00;101140.88;5019445;28;20032;-75
2021/04/05 11:22:26;;;;;;;4.15;2.78;;;;;;;12.82;100.00;101136.03;5033663;28;20057;-75
2021/04/05 11:25:28;;;;;;;3.72;3.17;;;;;;;13.44;100.00;101130.38;5020269;28;20029;-74
2021/04/05 11:28:25;;;;;;;5.18;3.55;;;;;;;13.40;100.00;101120.81;5034659;28;20057;-75
2021/04/05 11:31:17;;;;;;;7.28;5.15;;;;;;;14.02;100.00;101100.84;5034195;28;20106;-76
2021/04/05 11:34:04;;;;;;;6.45;4.90;;;;;;;14.40;100.00;101093.69;5019206;28;20030;-74
2021/04/05 11:37:00;;;;;;;6.03;4.70;;;;;;;14.13;100.00;101090.91;5019229;28;20429;-75
2021/04/05 11:39:54;;;;;;;6.70;5.47;;;;;;;13.88;100.00;101092.44;5019597;28;20101;-76
2021/04/05 11:42:44;;;;;;;7.30;6.13;;;;;;;12.86;100.00;101086.91;5034579;28;20095;-75
2021/04/05 11:45:47;;;;;;;7.88;5.88;;;;;;;14.29;100.00;101082.59;5018566;28;20095;-75
2021/04/05 11:48:33;;;;;;;14.52;6.72;;;;;;;14.33;100.00;101089.50;5032626;28;20347;-75
2021/04/05 11:51:27;;;;;;;7.47;6.07;;;;;;;14.05;99.15;101077.06;5032820;28;20366;-75
2021/04/05 11:54:34;;;;;;;7.55;6.40;;;;;;;13.47;100.00;101080.25;5018752;28;20029;-75
2021/04/05 11:57:25;;;;;;;7.75;6.57;;;;;;;13.24;100.00;101079.94;5005305;28;20041;-75
2021/04/05 12:00:16;;;;;;;8.73;6.22;;;;;;;12.63;100.00;101068.97;5033514;28;20100;-76
2021/04/05 12:03:25;;;;;;;7.70;6.10;;;;;;;13.43;100.00;101067.22;5033009;28;20132;-75
2021/04/05 12:06:33;;;;;;;7.20;6.13;;;;;;;14.04;100.00;101051.63;5033813;28;20366;-75
2021/04/05 12:09:31;;;;;;;6.80;5.72;;;;;;;14.61;99.45;101055.34;5032917;28;20028;-75
2021/04/05 12:12:22;;;;;;;5.45;4.93;;;;;;;13.71;100.00;101042.81;5033883;28;20526;-75
2021/04/05 12:15:16;;;;;;;6.85;6.07;;;;;;;14.31;100.00;101041.22;5037122;28;20040;-75
2021/04/05 12:18:03;;;;;;;8.40;5.85;;;;;;;14.66;98.31;101037.59;5037548;28;20476;-74
2021/04/05 12:21:02;;;;;;;5.65;5.03;;;;;;;14.48;99.19;101036.34;5023038;28;20044;-74
2021/04/05 12:23:57;;;;;;;6.00;5.40;;;;;;;14.67;98.38;101040.19;5037920;28;20029;-75
2021/04/05 12:26:43;;;;;;;8.77;5.53;;;;;;;14.74;96.83;101040.88;5036720;28;20052;-75
2021/04/05 12:29:29;;;;;;;7.35;5.38;;;;;;;14.20;99.23;101034.50;5037359;28;20131;-74
2021/04/05 12:32:20;;;;;;;6.90;5.45;;;;;;;13.73;100.00;101034.88;5037204;28;20473;-74
2021/04/05 12:35:09;;;;;;;6.00;5.28;;;;;;;13.68;100.00;101021.84;5037929;28;20040;-74
2021/04/05 12:38:06;;;;;;;7.03;5.97;;;;;;;13.12;100.00;101031.97;5021449;28;20033;-75
2021/04/05 12:40:52;;;;;;;6.90;5.95;;;;;;;12.97;100.00;101032.28;5023508;28;20021;-76
2021/04/05 12:43:41;;;;;;;12.15;6.68;;;;;;;12.60;100.00;101019.06;5037152;28;20466;-74
2021/04/05 12:46:28;;;;;;;8.80;6.40;;;;;;;13.24;100.00;101019.41;5037369;28;20033;-76
2021/04/05 12:49:20;;;;;;;7.68;6.30;;;;;;;12.97;100.00;101011.25;5036045;28;20044;-75
2021/04/05 12:52:09;;;;;;;7.90;6.30;;;;;;;13.76;100.00;101004.06;5036158;28;20116;-75
2021/04/05 12:54:55;;;;;;;9.10;6.53;;;;;;;13.38;100.00;100998.88;5037366;28;20090;-75
2021/04/05 12:57:41;;;;;;;9.98;5.95;;;;;;;13.97;100.00;100992.97;5036787;28;20029;-75
2021/04/05 13:00:27;;;;;;;8.48;7.07;;;;;;;13.56;100.00;100990.56;5037409;28;20059;-75
2021/04/05 13:03:22;;;;;;;12.00;7.32;;;;;;;13.07;100.00;100981.25;5035846;28;20470;-74
2021/04/05 13:06:14;;;;;;;10.82;7.82;;;;;;;12.26;100.00;100983.00;5037147;28;20029;-75
2021/04/05 13:09:23;;;;;;;11.88;9.13;;;;;;;12.08;100.00;100978.97;5022999;28;20036;-75
2021/04/05 13:12:18;;;;;;;11.77;8.68;;;;;;;12.62;100.00;100971.75;5022276;28;20025;-75